Ana Sayfa
METAR-TAF:

METAR-TAF

Havaalanları :

Ohri Havalimanı

Ohri, Makedonya

Enlem: 41-07N, Boylam: 020-48E, yükseklik: 760 m

Güncel hava durumu gözlemi

Rapor saat 20:00 UTC de 10 saat ve 1 dakika önce yapıldı.
Rüzgar kuzeydan 3 kt
Sıcaklık -5°C
Nem 86%
Basınç 1036 hPa
Görüş mesafesi 10 km veya daha fazla
1500 m altında bulut yok ve kümülonimbus yok

METAR: LWOH 212000Z 36003KT CAVOK M05/M07 Q1036

Saat: 07:01 (06:01 UTC)

Tahmin

Rapor saat 05:30 UTC de 31 dakika önce yapıldı.
Ayın 22'si saat 06 UTC'den ayın 23'si saat 06 UTC'ye kadar geçerli Tahmin
Rüzgar değişken yönden 2 kt
Görüş mesafesi 10 km veya daha fazla
1500 m altında bulut yok ve kümülonimbus yok

TAF: LWOH 220530Z 2206/2306 VRB02KT CAVOK

4.000'den fazla havaalanı için hava durumu gözlemleri ve tahminleri (METAR ve TAF raporları).

Kullanılabilir istasyonlar harita üzerinde sarı ve kırmızı noktalarla gösterilir.

İstasyonun adını görmek için fareyi noktanın üzerinde gezdirin.

Sonrasında hava gözlem ve tahminlerini görmek için tıklayın.

Haritayı değiştirmek için: yaklaştırmak için siyah artı işaretli yeşil düğmeye ve uzaklaştırmak için de eksi işaretli düğmeye hızla tıklayın; bitişik haritalar için yeşil okları kullanın.


METAR-TAF: